Briefing drone pour Chambery (LFLB)

Rechercher une autre localisation

Conditions de vol :


Nous sommes le : Lundi 02 août 2021
Il est 00:29 UTC (02:29 LT)

Lever de soleil : 03:55 UTC (05:55 LT)
Coucher de soleil : 19:29 UTC (21:29 LT)

Météo

L'essentiel des conditions de vol

VIGILANCE MÉTÉO FRANCE - Savoie (73)
Vigilance Jaune : Orages
CARTE TEMSI
CARTES DES FRONTS
METAR de LFLB
LFLB 020000Z AUTO VRB01KT 9999 2000 NSC 12/12 Q1016

Date d'émission: 02/08/2021
Heure d'émission: 00:00 UTC
Vent: Variable 1 KT (2 km/h)
Visibilité horizontale: > 10 km
Plafond : Pas de nuages significatifs (NSC)
Température: 12 °C
Point de rosée: 12 °C
Humidité: 100%
Pression (QNH): 1016 hPa
TAF de LFLB
LFLB 011900Z 0119/0215 CNL

Conditions prévues :

Heure d'émission : Bulletin éffectué le 01 à 19:00 UTC
Prévision : Valide du 01 a 19:00 UTC au 02 a 15:00 UTC
Nuages : à 0ft (0 m)
WEBCAM POUR CHAMBERY

Réglementation

Voler en sécurité

CARTES AERONAUTIQUE 1/500.000
CARTES VAC (LFLB)
SUP AIP




Chargement des AIP...
NOTAM (CHAMBERY + Terrain à proximité / FIR )




Chargement des NOTAMS...
CONTACT PREFECTURE 73


Avertissement : Les données mises à disposition sont indicatives. Oxygène Drone ne pourra être tenu responsable de dégâts causés aux biens et aux personnes.